sensor_id;sensor_type;location;lat;lon;timestamp;P1;durP1;ratioP1;P2;durP2;ratioP2
5559;SDS011;2803;47.916;8.074;2023-02-01T00:01:55;13.43;;;3.20;;
5559;SDS011;2803;47.916;8.074;2023-02-01T00:04:22;5.83;;;2.67;;
5559;SDS011;2803;47.916;8.074;2023-02-01T00:06:49;5.27;;;2.73;;
5559;SDS011;2803;47.916;8.074;2023-02-01T00:09:15;6.37;;;2.90;;
5559;SDS011;2803;47.916;8.074;2023-02-01T00:11:42;5.97;;;2.83;;
5559;SDS011;2803;47.916;8.074;2023-02-01T00:14:08;6.40;;;2.60;;
5559;SDS011;2803;47.916;8.074;2023-02-01T00:16:35;4.23;;;2.57;;
5559;SDS011;2803;47.916;8.074;2023-02-01T00:19:04;6.73;;;2.37;;
5559;SDS011;2803;47.916;8.074;2023-02-01T00:21:32;4.73;;;1.83;;
5559;SDS011;2803;47.916;8.074;2023-02-01T00:23:59;3.40;;;1.93;;
5559;SDS011;2803;47.916;8.074;2023-02-01T00:26:27;3.80;;;1.93;;
5559;SDS011;2803;47.916;8.074;2023-02-01T00:28:57;3.33;;;1.60;;
5559;SDS011;2803;47.916;8.074;2023-02-01T00:31:24;6.73;;;1.90;;
5559;SDS011;2803;47.916;8.074;2023-02-01T00:33:50;10.00;;;2.40;;
5559;SDS011;2803;47.916;8.074;2023-02-01T00:36:18;6.83;;;2.10;;
5559;SDS011;2803;47.916;8.074;2023-02-01T00:38:45;11.17;;;1.90;;
5559;SDS011;2803;47.916;8.074;2023-02-01T00:41:12;3.20;;;2.20;;
5559;SDS011;2803;47.916;8.074;2023-02-01T00:43:40;5.20;;;2.00;;
5559;SDS011;2803;47.916;8.074;2023-02-01T00:46:07;4.20;;;2.30;;
5559;SDS011;2803;47.916;8.074;2023-02-01T00:48:34;2.47;;;1.93;;
5559;SDS011;2803;47.916;8.074;2023-02-01T00:51:01;2.57;;;2.10;;
5559;SDS011;2803;47.916;8.074;2023-02-01T00:53:30;4.70;;;1.40;;
5559;SDS011;2803;47.916;8.074;2023-02-01T00:55:56;3.13;;;1.87;;
5559;SDS011;2803;47.916;8.074;2023-02-01T00:58:23;4.33;;;1.70;;
5559;SDS011;2803;47.916;8.074;2023-02-01T01:00:56;9.53;;;1.60;;
5559;SDS011;2803;47.916;8.074;2023-02-01T01:03:28;2.20;;;1.50;;
5559;SDS011;2803;47.916;8.074;2023-02-01T01:05:58;5.17;;;1.60;;
5559;SDS011;2803;47.916;8.074;2023-02-01T01:08:25;2.10;;;1.60;;
5559;SDS011;2803;47.916;8.074;2023-02-01T01:10:53;3.23;;;1.83;;
5559;SDS011;2803;47.916;8.074;2023-02-01T01:13:20;2.07;;;1.67;;
5559;SDS011;2803;47.916;8.074;2023-02-01T01:15:46;2.10;;;1.20;;
5559;SDS011;2803;47.916;8.074;2023-02-01T01:18:13;1.93;;;1.20;;
5559;SDS011;2803;47.916;8.074;2023-02-01T01:20:40;2.87;;;1.27;;
5559;SDS011;2803;47.916;8.074;2023-02-01T01:23:08;1.20;;;1.10;;
5559;SDS011;2803;47.916;8.074;2023-02-01T01:25:36;4.27;;;1.43;;
5559;SDS011;2803;47.916;8.074;2023-02-01T01:28:05;2.37;;;1.10;;
5559;SDS011;2803;47.916;8.074;2023-02-01T01:30:33;2.47;;;1.00;;
5559;SDS011;2803;47.916;8.074;2023-02-01T01:33:00;2.80;;;1.23;;
5559;SDS011;2803;47.916;8.074;2023-02-01T01:35:28;1.57;;;1.10;;
5559;SDS011;2803;47.916;8.074;2023-02-01T01:37:56;2.50;;;1.43;;
5559;SDS011;2803;47.916;8.074;2023-02-01T01:40:23;9.40;;;1.57;;
5559;SDS011;2803;47.916;8.074;2023-02-01T01:42:49;1.30;;;1.10;;
5559;SDS011;2803;47.916;8.074;2023-02-01T01:45:22;9.33;;;1.50;;
5559;SDS011;2803;47.916;8.074;2023-02-01T01:47:52;2.00;;;1.40;;
5559;SDS011;2803;47.916;8.074;2023-02-01T01:50:21;2.60;;;1.93;;
5559;SDS011;2803;47.916;8.074;2023-02-01T01:52:50;5.20;;;2.30;;
5559;SDS011;2803;47.916;8.074;2023-02-01T01:55:21;3.87;;;2.13;;
5559;SDS011;2803;47.916;8.074;2023-02-01T01:57:51;1.93;;;1.67;;
5559;SDS011;2803;47.916;8.074;2023-02-01T02:00:23;2.07;;;1.40;;
5559;SDS011;2803;47.916;8.074;2023-02-01T02:02:52;4.03;;;2.00;;
5559;SDS011;2803;47.916;8.074;2023-02-01T02:05:21;2.97;;;1.80;;
5559;SDS011;2803;47.916;8.074;2023-02-01T02:07:48;6.17;;;2.20;;
5559;SDS011;2803;47.916;8.074;2023-02-01T02:10:17;2.97;;;2.00;;
5559;SDS011;2803;47.916;8.074;2023-02-01T02:12:44;2.17;;;1.73;;
5559;SDS011;2803;47.916;8.074;2023-02-01T02:15:14;5.30;;;2.33;;
5559;SDS011;2803;47.916;8.074;2023-02-01T02:17:44;4.00;;;2.63;;
5559;SDS011;2803;47.916;8.074;2023-02-01T02:20:22;3.00;;;2.33;;
5559;SDS011;2803;47.916;8.074;2023-02-01T02:23:08;2.97;;;2.10;;
5559;SDS011;2803;47.916;8.074;2023-02-01T02:25:56;5.90;;;2.03;;
5559;SDS011;2803;47.916;8.074;2023-02-01T02:28:46;2.90;;;2.13;;
5559;SDS011;2803;47.916;8.074;2023-02-01T02:31:35;2.77;;;2.20;;
5559;SDS011;2803;47.916;8.074;2023-02-01T02:34:22;6.70;;;1.80;;
5559;SDS011;2803;47.916;8.074;2023-02-01T02:36:55;2.50;;;1.63;;
5559;SDS011;2803;47.916;8.074;2023-02-01T02:39:34;4.17;;;2.00;;
5559;SDS011;2803;47.916;8.074;2023-02-01T02:42:12;2.20;;;1.60;;
5559;SDS011;2803;47.916;8.074;2023-02-01T02:44:57;3.03;;;1.63;;
5559;SDS011;2803;47.916;8.074;2023-02-01T02:47:44;2.87;;;1.80;;
5559;SDS011;2803;47.916;8.074;2023-02-01T02:50:19;2.40;;;1.57;;
5559;SDS011;2803;47.916;8.074;2023-02-01T02:53:05;2.00;;;1.43;;
5559;SDS011;2803;47.916;8.074;2023-02-01T02:55:51;3.70;;;1.80;;
5559;SDS011;2803;47.916;8.074;2023-02-01T02:58:32;2.20;;;1.70;;
5559;SDS011;2803;47.916;8.074;2023-02-01T03:01:13;2.33;;;1.47;;
5559;SDS011;2803;47.916;8.074;2023-02-01T03:03:53;1.50;;;1.33;;
5559;SDS011;2803;47.916;8.074;2023-02-01T03:06:34;1.90;;;1.50;;
5559;SDS011;2803;47.916;8.074;2023-02-01T03:09:03;3.00;;;1.33;;
5559;SDS011;2803;47.916;8.074;2023-02-01T03:11:34;1.60;;;1.40;;
5559;SDS011;2803;47.916;8.074;2023-02-01T03:14:15;1.50;;;1.10;;
5559;SDS011;2803;47.916;8.074;2023-02-01T03:16:47;1.50;;;1.20;;
5559;SDS011;2803;47.916;8.074;2023-02-01T03:19:17;1.87;;;1.50;;
5559;SDS011;2803;47.916;8.074;2023-02-01T03:21:49;1.87;;;1.20;;
5559;SDS011;2803;47.916;8.074;2023-02-01T03:24:20;2.33;;;1.30;;
5559;SDS011;2803;47.916;8.074;2023-02-01T03:26:58;5.93;;;1.80;;
5559;SDS011;2803;47.916;8.074;2023-02-01T03:29:32;3.73;;;1.83;;
5559;SDS011;2803;47.916;8.074;2023-02-01T03:32:04;2.87;;;2.13;;
5559;SDS011;2803;47.916;8.074;2023-02-01T03:34:30;1.63;;;1.27;;
5559;SDS011;2803;47.916;8.074;2023-02-01T03:36:59;2.17;;;1.67;;
5559;SDS011;2803;47.916;8.074;2023-02-01T03:39:30;2.27;;;1.47;;
5559;SDS011;2803;47.916;8.074;2023-02-01T03:42:03;2.27;;;1.90;;
5559;SDS011;2803;47.916;8.074;2023-02-01T03:44:34;3.03;;;1.50;;
5559;SDS011;2803;47.916;8.074;2023-02-01T03:47:05;2.13;;;1.60;;
5559;SDS011;2803;47.916;8.074;2023-02-01T03:49:35;4.10;;;2.37;;
5559;SDS011;2803;47.916;8.074;2023-02-01T03:52:06;3.90;;;2.20;;
5559;SDS011;2803;47.916;8.074;2023-02-01T03:54:35;2.63;;;1.70;;
5559;SDS011;2803;47.916;8.074;2023-02-01T03:57:05;2.03;;;1.70;;
5559;SDS011;2803;47.916;8.074;2023-02-01T03:59:37;3.57;;;2.23;;
5559;SDS011;2803;47.916;8.074;2023-02-01T04:02:05;2.43;;;2.10;;
5559;SDS011;2803;47.916;8.074;2023-02-01T04:04:31;2.50;;;1.80;;
5559;SDS011;2803;47.916;8.074;2023-02-01T04:07:00;4.87;;;3.00;;
5559;SDS011;2803;47.916;8.074;2023-02-01T04:09:28;4.47;;;1.93;;
5559;SDS011;2803;47.916;8.074;2023-02-01T04:11:55;2.83;;;2.40;;
5559;SDS011;2803;47.916;8.074;2023-02-01T04:14:22;3.60;;;2.00;;
5559;SDS011;2803;47.916;8.074;2023-02-01T04:16:48;3.13;;;2.00;;
5559;SDS011;2803;47.916;8.074;2023-02-01T04:19:15;3.47;;;1.60;;
5559;SDS011;2803;47.916;8.074;2023-02-01T04:21:41;2.67;;;1.70;;
5559;SDS011;2803;47.916;8.074;2023-02-01T04:24:08;3.37;;;1.50;;
5559;SDS011;2803;47.916;8.074;2023-02-01T04:26:36;6.03;;;2.40;;
5559;SDS011;2803;47.916;8.074;2023-02-01T04:29:03;1.90;;;1.57;;
5559;SDS011;2803;47.916;8.074;2023-02-01T04:31:29;4.10;;;1.80;;
5559;SDS011;2803;47.916;8.074;2023-02-01T04:33:56;2.47;;;1.90;;
5559;SDS011;2803;47.916;8.074;2023-02-01T04:36:23;8.13;;;2.00;;
5559;SDS011;2803;47.916;8.074;2023-02-01T04:38:50;2.47;;;1.67;;
5559;SDS011;2803;47.916;8.074;2023-02-01T04:41:16;1.83;;;1.40;;
5559;SDS011;2803;47.916;8.074;2023-02-01T04:43:45;2.47;;;1.40;;
5559;SDS011;2803;47.916;8.074;2023-02-01T04:46:12;2.70;;;1.43;;
5559;SDS011;2803;47.916;8.074;2023-02-01T04:48:39;3.23;;;1.57;;
5559;SDS011;2803;47.916;8.074;2023-02-01T04:51:06;2.07;;;1.13;;
5559;SDS011;2803;47.916;8.074;2023-02-01T04:53:32;3.30;;;1.30;;
5559;SDS011;2803;47.916;8.074;2023-02-01T04:55:59;3.93;;;1.40;;
5559;SDS011;2803;47.916;8.074;2023-02-01T04:58:26;3.47;;;1.40;;
5559;SDS011;2803;47.916;8.074;2023-02-01T05:00:53;1.20;;;0.90;;
5559;SDS011;2803;47.916;8.074;2023-02-01T05:03:20;3.13;;;1.03;;
5559;SDS011;2803;47.916;8.074;2023-02-01T05:05:47;1.30;;;0.90;;
5559;SDS011;2803;47.916;8.074;2023-02-01T05:08:14;2.00;;;1.10;;
5559;SDS011;2803;47.916;8.074;2023-02-01T05:10:41;1.27;;;0.93;;
5559;SDS011;2803;47.916;8.074;2023-02-01T05:13:08;1.63;;;1.10;;
5559;SDS011;2803;47.916;8.074;2023-02-01T05:15:50;3.73;;;1.20;;
5559;SDS011;2803;47.916;8.074;2023-02-01T05:18:18;1.70;;;1.17;;
5559;SDS011;2803;47.916;8.074;2023-02-01T05:20:44;1.20;;;0.90;;
5559;SDS011;2803;47.916;8.074;2023-02-01T05:23:11;2.37;;;1.23;;
5559;SDS011;2803;47.916;8.074;2023-02-01T05:25:38;1.97;;;1.33;;
5559;SDS011;2803;47.916;8.074;2023-02-01T05:28:04;1.47;;;1.10;;
5559;SDS011;2803;47.916;8.074;2023-02-01T05:30:31;1.60;;;1.10;;
5559;SDS011;2803;47.916;8.074;2023-02-01T05:33:00;1.53;;;1.13;;
5559;SDS011;2803;47.916;8.074;2023-02-01T05:35:27;3.37;;;1.27;;
5559;SDS011;2803;47.916;8.074;2023-02-01T05:37:54;1.63;;;1.20;;
5559;SDS011;2803;47.916;8.074;2023-02-01T05:40:21;1.70;;;1.20;;
5559;SDS011;2803;47.916;8.074;2023-02-01T05:42:47;1.47;;;1.20;;
5559;SDS011;2803;47.916;8.074;2023-02-01T05:45:14;1.60;;;1.03;;
5559;SDS011;2803;47.916;8.074;2023-02-01T05:47:41;2.80;;;1.30;;
5559;SDS011;2803;47.916;8.074;2023-02-01T05:50:08;1.17;;;1.00;;
5559;SDS011;2803;47.916;8.074;2023-02-01T05:52:36;1.33;;;0.90;;
5559;SDS011;2803;47.916;8.074;2023-02-01T05:55:03;2.90;;;1.10;;
5559;SDS011;2803;47.916;8.074;2023-02-01T05:57:30;1.50;;;1.03;;
5559;SDS011;2803;47.916;8.074;2023-02-01T05:59:56;2.63;;;0.90;;
5559;SDS011;2803;47.916;8.074;2023-02-01T06:02:23;1.30;;;1.00;;
5559;SDS011;2803;47.916;8.074;2023-02-01T06:04:50;1.27;;;1.10;;
5559;SDS011;2803;47.916;8.074;2023-02-01T06:07:16;1.30;;;1.10;;
5559;SDS011;2803;47.916;8.074;2023-02-01T06:09:44;1.93;;;1.00;;
5559;SDS011;2803;47.916;8.074;2023-02-01T06:12:11;1.73;;;1.13;;
5559;SDS011;2803;47.916;8.074;2023-02-01T06:14:37;1.40;;;1.00;;
5559;SDS011;2803;47.916;8.074;2023-02-01T06:17:04;1.33;;;0.90;;
5559;SDS011;2803;47.916;8.074;2023-02-01T06:19:31;1.53;;;1.00;;
5559;SDS011;2803;47.916;8.074;2023-02-01T06:21:58;1.03;;;0.80;;
5559;SDS011;2803;47.916;8.074;2023-02-01T06:24:25;1.20;;;0.90;;
5559;SDS011;2803;47.916;8.074;2023-02-01T06:26:52;1.30;;;1.10;;
5559;SDS011;2803;47.916;8.074;2023-02-01T06:29:19;1.30;;;1.10;;
5559;SDS011;2803;47.916;8.074;2023-02-01T06:31:46;2.40;;;1.00;;
5559;SDS011;2803;47.916;8.074;2023-02-01T06:34:12;1.77;;;0.97;;
5559;SDS011;2803;47.916;8.074;2023-02-01T06:36:39;1.50;;;0.97;;
5559;SDS011;2803;47.916;8.074;2023-02-01T06:39:05;1.50;;;0.80;;
5559;SDS011;2803;47.916;8.074;2023-02-01T06:41:32;1.43;;;0.90;;
5559;SDS011;2803;47.916;8.074;2023-02-01T06:44:01;2.43;;;1.10;;
5559;SDS011;2803;47.916;8.074;2023-02-01T06:46:27;1.67;;;0.80;;
5559;SDS011;2803;47.916;8.074;2023-02-01T06:48:54;1.93;;;0.63;;
5559;SDS011;2803;47.916;8.074;2023-02-01T06:51:21;1.20;;;0.90;;
5559;SDS011;2803;47.916;8.074;2023-02-01T06:53:49;1.33;;;0.83;;
5559;SDS011;2803;47.916;8.074;2023-02-01T06:56:16;1.93;;;0.70;;
5559;SDS011;2803;47.916;8.074;2023-02-01T06:58:43;1.00;;;0.90;;
5559;SDS011;2803;47.916;8.074;2023-02-01T07:01:12;2.00;;;0.97;;
5559;SDS011;2803;47.916;8.074;2023-02-01T07:03:39;1.50;;;1.00;;
5559;SDS011;2803;47.916;8.074;2023-02-01T07:06:06;2.10;;;1.03;;
5559;SDS011;2803;47.916;8.074;2023-02-01T07:08:34;1.60;;;0.80;;
5559;SDS011;2803;47.916;8.074;2023-02-01T07:11:02;1.77;;;0.93;;
5559;SDS011;2803;47.916;8.074;2023-02-01T07:13:29;1.27;;;1.07;;
5559;SDS011;2803;47.916;8.074;2023-02-01T07:15:57;1.20;;;0.80;;
5559;SDS011;2803;47.916;8.074;2023-02-01T07:18:26;1.30;;;1.17;;
5559;SDS011;2803;47.916;8.074;2023-02-01T07:20:52;1.23;;;0.97;;
5559;SDS011;2803;47.916;8.074;2023-02-01T07:23:19;1.20;;;0.90;;
5559;SDS011;2803;47.916;8.074;2023-02-01T07:25:46;1.97;;;0.87;;
5559;SDS011;2803;47.916;8.074;2023-02-01T07:28:13;2.27;;;0.87;;
5559;SDS011;2803;47.916;8.074;2023-02-01T07:30:39;1.40;;;1.20;;
5559;SDS011;2803;47.916;8.074;2023-02-01T07:33:06;1.50;;;1.10;;
5559;SDS011;2803;47.916;8.074;2023-02-01T07:35:34;1.47;;;1.20;;
5559;SDS011;2803;47.916;8.074;2023-02-01T07:38:01;2.70;;;1.10;;
5559;SDS011;2803;47.916;8.074;2023-02-01T07:40:27;2.37;;;1.30;;
5559;SDS011;2803;47.916;8.074;2023-02-01T07:42:55;4.60;;;1.40;;
5559;SDS011;2803;47.916;8.074;2023-02-01T07:45:22;2.10;;;1.30;;
5559;SDS011;2803;47.916;8.074;2023-02-01T07:47:50;2.43;;;1.30;;
5559;SDS011;2803;47.916;8.074;2023-02-01T07:50:17;3.00;;;1.10;;
5559;SDS011;2803;47.916;8.074;2023-02-01T07:52:45;6.80;;;1.10;;
5559;SDS011;2803;47.916;8.074;2023-02-01T07:55:12;4.33;;;1.30;;
5559;SDS011;2803;47.916;8.074;2023-02-01T07:57:38;7.63;;;1.50;;
5559;SDS011;2803;47.916;8.074;2023-02-01T08:00:05;2.40;;;1.50;;
5559;SDS011;2803;47.916;8.074;2023-02-01T08:02:46;2.57;;;1.33;;
5559;SDS011;2803;47.916;8.074;2023-02-01T08:05:13;6.53;;;1.93;;
5559;SDS011;2803;47.916;8.074;2023-02-01T08:07:39;2.80;;;1.60;;
5559;SDS011;2803;47.916;8.074;2023-02-01T08:10:07;2.80;;;1.47;;
5559;SDS011;2803;47.916;8.074;2023-02-01T08:12:36;3.57;;;1.60;;
5559;SDS011;2803;47.916;8.074;2023-02-01T08:15:03;6.13;;;1.37;;
5559;SDS011;2803;47.916;8.074;2023-02-01T08:17:30;2.67;;;1.27;;
5559;SDS011;2803;47.916;8.074;2023-02-01T08:19:57;4.90;;;1.23;;
5559;SDS011;2803;47.916;8.074;2023-02-01T08:22:23;6.83;;;2.00;;
5559;SDS011;2803;47.916;8.074;2023-02-01T08:24:50;2.20;;;1.77;;
5559;SDS011;2803;47.916;8.074;2023-02-01T08:27:24;5.90;;;2.07;;
5559;SDS011;2803;47.916;8.074;2023-02-01T08:29:50;6.53;;;1.77;;
5559;SDS011;2803;47.916;8.074;2023-02-01T08:32:18;9.10;;;2.27;;
5559;SDS011;2803;47.916;8.074;2023-02-01T08:34:44;3.23;;;1.57;;
5559;SDS011;2803;47.916;8.074;2023-02-01T08:37:11;3.97;;;1.77;;
5559;SDS011;2803;47.916;8.074;2023-02-01T08:39:37;6.23;;;1.67;;
5559;SDS011;2803;47.916;8.074;2023-02-01T08:42:04;4.13;;;1.80;;
5559;SDS011;2803;47.916;8.074;2023-02-01T08:44:46;2.93;;;1.63;;
5559;SDS011;2803;47.916;8.074;2023-02-01T08:47:13;4.03;;;1.90;;
5559;SDS011;2803;47.916;8.074;2023-02-01T08:49:39;2.47;;;1.80;;
5559;SDS011;2803;47.916;8.074;2023-02-01T08:52:06;11.97;;;1.90;;
5559;SDS011;2803;47.916;8.074;2023-02-01T08:54:32;3.97;;;1.80;;
5559;SDS011;2803;47.916;8.074;2023-02-01T08:56:59;4.70;;;1.70;;
5559;SDS011;2803;47.916;8.074;2023-02-01T08:59:25;5.50;;;1.73;;
5559;SDS011;2803;47.916;8.074;2023-02-01T09:01:53;3.20;;;1.83;;
5559;SDS011;2803;47.916;8.074;2023-02-01T09:04:21;5.17;;;2.03;;
5559;SDS011;2803;47.916;8.074;2023-02-01T09:06:47;4.63;;;1.70;;
5559;SDS011;2803;47.916;8.074;2023-02-01T09:09:14;5.07;;;1.67;;
5559;SDS011;2803;47.916;8.074;2023-02-01T09:11:40;4.00;;;1.73;;
5559;SDS011;2803;47.916;8.074;2023-02-01T09:14:07;4.33;;;1.70;;
5559;SDS011;2803;47.916;8.074;2023-02-01T09:16:33;3.97;;;1.73;;
5559;SDS011;2803;47.916;8.074;2023-02-01T09:19:01;4.47;;;2.03;;
5559;SDS011;2803;47.916;8.074;2023-02-01T09:21:28;6.93;;;2.03;;
5559;SDS011;2803;47.916;8.074;2023-02-01T09:23:55;7.97;;;1.93;;
5559;SDS011;2803;47.916;8.074;2023-02-01T09:26:21;1.43;;;1.30;;
5559;SDS011;2803;47.916;8.074;2023-02-01T09:28:48;4.00;;;1.23;;
5559;SDS011;2803;47.916;8.074;2023-02-01T09:31:14;4.00;;;1.20;;
5559;SDS011;2803;47.916;8.074;2023-02-01T09:33:41;4.63;;;1.43;;
5559;SDS011;2803;47.916;8.074;2023-02-01T09:36:09;1.90;;;1.20;;
5559;SDS011;2803;47.916;8.074;2023-02-01T09:38:35;4.00;;;1.40;;
5559;SDS011;2803;47.916;8.074;2023-02-01T09:41:06;6.17;;;1.33;;
5559;SDS011;2803;47.916;8.074;2023-02-01T09:43:46;3.73;;;1.40;;
5559;SDS011;2803;47.916;8.074;2023-02-01T09:46:22;2.73;;;1.40;;
5559;SDS011;2803;47.916;8.074;2023-02-01T09:48:52;3.60;;;1.30;;
5559;SDS011;2803;47.916;8.074;2023-02-01T09:51:23;1.30;;;1.20;;
5559;SDS011;2803;47.916;8.074;2023-02-01T09:53:57;5.13;;;1.47;;
5559;SDS011;2803;47.916;8.074;2023-02-01T09:56:29;2.50;;;1.27;;
5559;SDS011;2803;47.916;8.074;2023-02-01T09:59:03;3.77;;;1.67;;
5559;SDS011;2803;47.916;8.074;2023-02-01T10:01:36;3.63;;;1.20;;
5559;SDS011;2803;47.916;8.074;2023-02-01T10:04:04;3.53;;;1.10;;
5559;SDS011;2803;47.916;8.074;2023-02-01T10:06:37;7.73;;;1.33;;
5559;SDS011;2803;47.916;8.074;2023-02-01T10:09:14;4.07;;;1.20;;
5559;SDS011;2803;47.916;8.074;2023-02-01T10:11:53;3.20;;;1.40;;
5559;SDS011;2803;47.916;8.074;2023-02-01T10:14:37;6.13;;;1.53;;
5559;SDS011;2803;47.916;8.074;2023-02-01T10:17:16;2.03;;;1.40;;
5559;SDS011;2803;47.916;8.074;2023-02-01T10:19:54;4.13;;;1.60;;
5559;SDS011;2803;47.916;8.074;2023-02-01T10:22:36;1.73;;;1.30;;
5559;SDS011;2803;47.916;8.074;2023-02-01T10:25:08;2.40;;;1.50;;
5559;SDS011;2803;47.916;8.074;2023-02-01T10:27:43;3.53;;;1.40;;
5559;SDS011;2803;47.916;8.074;2023-02-01T10:30:16;2.30;;;1.47;;
5559;SDS011;2803;47.916;8.074;2023-02-01T10:32:45;5.00;;;1.43;;
5559;SDS011;2803;47.916;8.074;2023-02-01T10:35:15;3.90;;;1.67;;
5559;SDS011;2803;47.916;8.074;2023-02-01T10:37:45;6.80;;;1.73;;
5559;SDS011;2803;47.916;8.074;2023-02-01T10:40:15;3.10;;;1.60;;
5559;SDS011;2803;47.916;8.074;2023-02-01T10:42:46;6.33;;;1.70;;
5559;SDS011;2803;47.916;8.074;2023-02-01T10:45:14;2.93;;;1.70;;
5559;SDS011;2803;47.916;8.074;2023-02-01T10:47:44;6.57;;;1.80;;
5559;SDS011;2803;47.916;8.074;2023-02-01T10:50:14;3.67;;;1.70;;
5559;SDS011;2803;47.916;8.074;2023-02-01T10:52:48;9.20;;;2.40;;
5559;SDS011;2803;47.916;8.074;2023-02-01T10:55:26;4.87;;;2.10;;
5559;SDS011;2803;47.916;8.074;2023-02-01T10:57:56;6.63;;;2.20;;
5559;SDS011;2803;47.916;8.074;2023-02-01T11:00:23;9.00;;;2.20;;
5559;SDS011;2803;47.916;8.074;2023-02-01T11:02:51;5.60;;;2.20;;
5559;SDS011;2803;47.916;8.074;2023-02-01T11:05:18;4.33;;;1.87;;
5559;SDS011;2803;47.916;8.074;2023-02-01T11:07:49;4.40;;;1.67;;
5559;SDS011;2803;47.916;8.074;2023-02-01T11:13:02;2.10;;;1.70;;
5559;SDS011;2803;47.916;8.074;2023-02-01T11:15:29;6.27;;;2.33;;
5559;SDS011;2803;47.916;8.074;2023-02-01T11:17:56;1.97;;;1.77;;
5559;SDS011;2803;47.916;8.074;2023-02-01T11:20:40;7.00;;;2.40;;
5559;SDS011;2803;47.916;8.074;2023-02-01T11:23:12;7.20;;;2.37;;
5559;SDS011;2803;47.916;8.074;2023-02-01T11:25:47;7.97;;;2.13;;
5559;SDS011;2803;47.916;8.074;2023-02-01T11:28:15;4.27;;;2.30;;
5559;SDS011;2803;47.916;8.074;2023-02-01T11:30:43;7.47;;;2.20;;
5559;SDS011;2803;47.916;8.074;2023-02-01T11:33:12;4.07;;;2.40;;
5559;SDS011;2803;47.916;8.074;2023-02-01T11:35:42;5.17;;;2.00;;
5559;SDS011;2803;47.916;8.074;2023-02-01T11:38:11;7.67;;;2.20;;
5559;SDS011;2803;47.916;8.074;2023-02-01T11:40:45;3.87;;;1.80;;
5559;SDS011;2803;47.916;8.074;2023-02-01T11:43:14;8.23;;;2.93;;
5559;SDS011;2803;47.916;8.074;2023-02-01T11:45:53;6.23;;;2.00;;
5559;SDS011;2803;47.916;8.074;2023-02-01T11:48:21;11.50;;;2.93;;
5559;SDS011;2803;47.916;8.074;2023-02-01T11:50:52;8.10;;;2.20;;
5559;SDS011;2803;47.916;8.074;2023-02-01T11:53:35;9.03;;;2.70;;
5559;SDS011;2803;47.916;8.074;2023-02-01T11:56:16;4.10;;;2.20;;
5559;SDS011;2803;47.916;8.074;2023-02-01T11:58:50;8.03;;;3.30;;
5559;SDS011;2803;47.916;8.074;2023-02-01T12:01:34;8.77;;;2.60;;
5559;SDS011;2803;47.916;8.074;2023-02-01T12:04:14;6.53;;;2.10;;
5559;SDS011;2803;47.916;8.074;2023-02-01T12:06:56;4.03;;;2.47;;
5559;SDS011;2803;47.916;8.074;2023-02-01T12:09:31;9.93;;;2.40;;
5559;SDS011;2803;47.916;8.074;2023-02-01T12:12:16;14.90;;;3.50;;
5559;SDS011;2803;47.916;8.074;2023-02-01T12:15:02;13.13;;;2.97;;
5559;SDS011;2803;47.916;8.074;2023-02-01T12:17:42;9.00;;;2.40;;
5559;SDS011;2803;47.916;8.074;2023-02-01T12:20:21;7.63;;;2.13;;
5559;SDS011;2803;47.916;8.074;2023-02-01T12:23:01;9.27;;;2.90;;
5559;SDS011;2803;47.916;8.074;2023-02-01T12:25:39;12.00;;;2.17;;
5559;SDS011;2803;47.916;8.074;2023-02-01T12:28:22;5.03;;;2.17;;
5559;SDS011;2803;47.916;8.074;2023-02-01T12:31:10;7.20;;;2.77;;
5559;SDS011;2803;47.916;8.074;2023-02-01T12:33:52;4.70;;;2.30;;
5559;SDS011;2803;47.916;8.074;2023-02-01T12:36:32;7.10;;;2.13;;
5559;SDS011;2803;47.916;8.074;2023-02-01T12:39:07;9.13;;;2.60;;
5559;SDS011;2803;47.916;8.074;2023-02-01T12:41:47;13.57;;;2.83;;
5559;SDS011;2803;47.916;8.074;2023-02-01T12:44:22;14.30;;;2.40;;
5559;SDS011;2803;47.916;8.074;2023-02-01T12:46:56;5.90;;;2.50;;
5559;SDS011;2803;47.916;8.074;2023-02-01T12:49:27;4.13;;;1.87;;
5559;SDS011;2803;47.916;8.074;2023-02-01T12:52:00;7.50;;;1.90;;
5559;SDS011;2803;47.916;8.074;2023-02-01T12:54:32;11.33;;;3.13;;
5559;SDS011;2803;47.916;8.074;2023-02-01T12:57:05;5.63;;;2.17;;
5559;SDS011;2803;47.916;8.074;2023-02-01T12:59:38;6.67;;;2.50;;
5559;SDS011;2803;47.916;8.074;2023-02-01T13:02:11;6.00;;;2.40;;
5559;SDS011;2803;47.916;8.074;2023-02-01T13:04:44;6.90;;;2.77;;
5559;SDS011;2803;47.916;8.074;2023-02-01T13:07:20;10.43;;;2.80;;
5559;SDS011;2803;47.916;8.074;2023-02-01T13:09:53;10.33;;;3.00;;
5559;SDS011;2803;47.916;8.074;2023-02-01T13:12:32;10.83;;;2.40;;
5559;SDS011;2803;47.916;8.074;2023-02-01T13:15:02;7.90;;;3.00;;
5559;SDS011;2803;47.916;8.074;2023-02-01T13:17:36;10.37;;;2.80;;
5559;SDS011;2803;47.916;8.074;2023-02-01T13:20:05;9.60;;;2.57;;
5559;SDS011;2803;47.916;8.074;2023-02-01T13:22:40;11.67;;;3.33;;
5559;SDS011;2803;47.916;8.074;2023-02-01T13:25:11;7.90;;;3.00;;
5559;SDS011;2803;47.916;8.074;2023-02-01T13:27:40;15.43;;;3.40;;
5559;SDS011;2803;47.916;8.074;2023-02-01T13:30:10;11.63;;;2.47;;
5559;SDS011;2803;47.916;8.074;2023-02-01T13:32:48;13.70;;;2.80;;
5559;SDS011;2803;47.916;8.074;2023-02-01T13:35:31;10.70;;;3.60;;
5559;SDS011;2803;47.916;8.074;2023-02-01T13:38:12;8.93;;;3.60;;
5559;SDS011;2803;47.916;8.074;2023-02-01T13:41:00;14.23;;;3.10;;
5559;SDS011;2803;47.916;8.074;2023-02-01T13:43:38;11.83;;;3.20;;
5559;SDS011;2803;47.916;8.074;2023-02-01T13:46:07;7.77;;;2.77;;
5559;SDS011;2803;47.916;8.074;2023-02-01T13:48:38;17.53;;;2.80;;
5559;SDS011;2803;47.916;8.074;2023-02-01T13:51:07;13.73;;;3.17;;
5559;SDS011;2803;47.916;8.074;2023-02-01T13:53:34;11.10;;;2.90;;
5559;SDS011;2803;47.916;8.074;2023-02-01T13:56:03;9.47;;;3.10;;
5559;SDS011;2803;47.916;8.074;2023-02-01T13:58:34;13.27;;;2.87;;
5559;SDS011;2803;47.916;8.074;2023-02-01T14:03:59;7.77;;;3.07;;
5559;SDS011;2803;47.916;8.074;2023-02-01T14:06:36;14.43;;;3.23;;
5559;SDS011;2803;47.916;8.074;2023-02-01T14:09:13;10.17;;;2.53;;
5559;SDS011;2803;47.916;8.074;2023-02-01T14:11:43;16.70;;;2.77;;
5559;SDS011;2803;47.916;8.074;2023-02-01T14:23:01;14.60;;;3.03;;
5559;SDS011;2803;47.916;8.074;2023-02-01T14:25:31;27.23;;;3.17;;
5559;SDS011;2803;47.916;8.074;2023-02-01T14:27:59;9.83;;;2.60;;
5559;SDS011;2803;47.916;8.074;2023-02-01T14:30:27;15.20;;;2.87;;
5559;SDS011;2803;47.916;8.074;2023-02-01T14:32:53;13.33;;;2.57;;
5559;SDS011;2803;47.916;8.074;2023-02-01T14:35:20;12.23;;;2.60;;
5559;SDS011;2803;47.916;8.074;2023-02-01T14:37:51;11.80;;;2.60;;
5559;SDS011;2803;47.916;8.074;2023-02-01T14:40:23;8.70;;;2.57;;
5559;SDS011;2803;47.916;8.074;2023-02-01T14:42:53;11.60;;;2.30;;
5559;SDS011;2803;47.916;8.074;2023-02-01T14:51:15;13.93;;;2.77;;
5559;SDS011;2803;47.916;8.074;2023-02-01T14:53:43;11.00;;;3.00;;
5559;SDS011;2803;47.916;8.074;2023-02-01T14:56:13;21.97;;;3.43;;
5559;SDS011;2803;47.916;8.074;2023-02-01T14:58:47;17.47;;;2.87;;
5559;SDS011;2803;47.916;8.074;2023-02-01T15:01:18;8.50;;;2.80;;
5559;SDS011;2803;47.916;8.074;2023-02-01T15:03:52;8.97;;;2.83;;
5559;SDS011;2803;47.916;8.074;2023-02-01T15:06:26;10.30;;;2.50;;
5559;SDS011;2803;47.916;8.074;2023-02-01T15:08:57;18.30;;;3.60;;
5559;SDS011;2803;47.916;8.074;2023-02-01T15:11:28;13.37;;;3.40;;
5559;SDS011;2803;47.916;8.074;2023-02-01T15:13:55;14.87;;;2.93;;
5559;SDS011;2803;47.916;8.074;2023-02-01T15:16:25;14.93;;;3.00;;
5559;SDS011;2803;47.916;8.074;2023-02-01T15:19:06;11.33;;;3.20;;
5559;SDS011;2803;47.916;8.074;2023-02-01T15:21:41;11.17;;;2.60;;
5559;SDS011;2803;47.916;8.074;2023-02-01T15:24:11;20.93;;;3.53;;
5559;SDS011;2803;47.916;8.074;2023-02-01T15:26:39;13.63;;;3.33;;
5559;SDS011;2803;47.916;8.074;2023-02-01T15:29:09;13.37;;;2.73;;
5559;SDS011;2803;47.916;8.074;2023-02-01T15:31:38;7.60;;;2.53;;
5559;SDS011;2803;47.916;8.074;2023-02-01T15:34:07;8.57;;;2.50;;
5559;SDS011;2803;47.916;8.074;2023-02-01T15:36:33;13.33;;;3.10;;
5559;SDS011;2803;47.916;8.074;2023-02-01T15:41:49;9.27;;;2.30;;
5559;SDS011;2803;47.916;8.074;2023-02-01T15:44:21;12.40;;;2.67;;
5559;SDS011;2803;47.916;8.074;2023-02-01T15:46:56;10.73;;;2.57;;
5559;SDS011;2803;47.916;8.074;2023-02-01T15:49:25;14.73;;;3.17;;
5559;SDS011;2803;47.916;8.074;2023-02-01T15:51:54;7.90;;;2.97;;
5559;SDS011;2803;47.916;8.074;2023-02-01T15:54:23;14.70;;;2.50;;
5559;SDS011;2803;47.916;8.074;2023-02-01T15:56:54;23.20;;;3.77;;